Time;durP1;ratioP1;P1;durP2;ratioP2;P2;SDS_P1;SDS_P2;PMS_P1;PMS_P2;Temp;Humidity;BMP_temperature;BMP_pressure;BME280_temperature;BME280_humidity;BME280_pressure;Samples;Min_cycle;Max_cycle;Signal;HPM_P1;HPM_P2
2022/05/31 00:02:16;;;;;;;9.93;6.15;;;;;;;22.98;54.69;99346.06;5033859;28;20101;-87
2022/05/31 00:04:42;;;;;;;7.07;5.53;;;;;;;23.15;54.75;99379.03;5033757;28;20024;-86
2022/05/31 00:07:07;;;;;;;10.27;6.00;;;;;;;23.01;54.86;99365.22;5034043;28;20025;-86
2022/05/31 00:09:34;;;;;;;8.98;5.97;;;;;;;22.87;54.38;99369.47;5033951;28;20026;-86
2022/05/31 00:12:00;;;;;;;10.57;6.50;;;;;;;22.50;54.86;99294.97;5033830;28;20108;-86
2022/05/31 00:14:26;;;;;;;10.98;6.20;;;;;;;22.88;54.85;99343.34;5034088;28;20498;-86
2022/05/31 00:16:52;;;;;;;9.68;6.13;;;;;;;23.01;54.80;99353.63;5033363;28;20021;-87
2022/05/31 00:19:18;;;;;;;9.55;6.43;;;;;;;23.20;54.65;99378.22;5033192;28;20025;-86
2022/05/31 00:22:02;;;;;;;9.95;6.18;;;;;;;23.17;54.86;99374.19;5033206;28;20029;-87
2022/05/31 00:24:27;;;;;;;12.18;6.70;;;;;;;23.14;54.51;99380.91;5034616;28;20018;-86
2022/05/31 00:26:53;;;;;;;11.05;5.90;;;;;;;23.10;54.67;99384.38;5054856;28;20029;-86
2022/05/31 00:29:18;;;;;;;11.07;6.75;;;;;;;23.05;54.80;99393.25;5055374;28;20084;-85
2022/05/31 00:31:47;;;;;;;11.40;6.53;;;;;;;21.74;54.86;99184.25;5041330;28;20021;-87
2022/05/31 00:34:13;;;;;;;8.05;5.68;;;;;;;22.47;55.00;99300.06;5033023;28;20052;-86
2022/05/31 00:36:42;;;;;;;8.02;5.85;;;;;;;23.00;54.94;99389.72;5031894;28;20168;-87
2022/05/31 00:39:08;;;;;;;10.00;6.60;;;;;;;22.35;54.92;99280.66;5031955;28;20409;-87
2022/05/31 00:41:34;;;;;;;11.77;6.20;;;;;;;22.33;54.88;99294.34;5033095;28;20086;-86
2022/05/31 00:44:10;;;;;;;11.43;6.07;;;;;;;22.88;55.23;99378.34;5031620;28;20061;-86
2022/05/31 00:46:46;;;;;;;10.57;6.03;;;;;;;23.03;54.74;99394.56;5031515;28;20021;-86
2022/05/31 00:49:18;;;;;;;8.80;6.35;;;;;;;22.69;54.78;99349.16;5032858;28;20025;-86
2022/05/31 00:51:48;;;;;;;8.52;6.80;;;;;;;22.09;54.96;99268.91;5031812;28;20100;-86
2022/05/31 00:54:16;;;;;;;8.75;6.00;;;;;;;22.74;55.17;99412.97;5032576;28;20037;-86
2022/05/31 00:56:43;;;;;;;8.90;6.45;;;;;;;22.71;55.31;99425.06;5032703;28;20028;-86
2022/05/31 00:59:14;;;;;;;11.05;6.38;;;;;;;22.38;55.43;99375.09;5032695;28;20087;-86
2022/05/31 01:01:41;;;;;;;10.05;6.68;;;;;;;22.03;55.53;99335.28;5048422;28;20407;-86
2022/05/31 01:04:07;;;;;;;11.30;6.68;;;;;;;22.33;55.69;99383.13;5057216;28;20052;-86
2022/05/31 01:06:33;;;;;;;10.82;6.55;;;;;;;22.36;55.66;99389.88;5055293;28;20025;-86
2022/05/31 01:09:00;;;;;;;9.23;6.43;;;;;;;22.56;55.51;99419.59;5054973;28;20065;-85
2022/05/31 01:11:27;;;;;;;14.23;7.35;;;;;;;22.26;55.69;99412.09;5031444;28;20025;-86
2022/05/31 01:13:54;;;;;;;10.13;5.78;;;;;;;22.43;55.60;99434.31;5031024;28;20048;-86
2022/05/31 01:16:20;;;;;;;10.55;6.35;;;;;;;22.41;55.52;99433.75;5031230;28;20029;-85
2022/05/31 01:18:46;;;;;;;10.05;5.85;;;;;;;21.14;55.56;99241.75;5032320;28;20028;-86
2022/05/31 01:21:11;;;;;;;12.70;6.85;;;;;;;21.49;55.95;99318.38;5032654;28;20025;-86
2022/05/31 01:24:06;;;;;;;14.77;6.85;;;;;;;22.22;56.18;99439.75;5032304;28;20029;-86
2022/05/31 01:26:45;;;;;;;9.45;7.03;;;;;;;22.19;56.42;99436.50;5032273;28;20494;-86
2022/05/31 01:29:23;;;;;;;10.55;6.43;;;;;;;22.01;56.04;99419.91;5030839;28;20091;-87
2022/05/31 01:32:03;;;;;;;12.38;7.22;;;;;;;21.81;56.37;99381.03;5032013;28;20029;-86
2022/05/31 01:34:37;;;;;;;12.60;7.78;;;;;;;21.38;56.21;99338.97;5030528;28;20117;-87
2022/05/31 01:37:05;;;;;;;11.10;7.25;;;;;;;21.82;56.46;99393.41;5031993;28;20091;-87
2022/05/31 01:39:38;;;;;;;8.38;6.68;;;;;;;22.01;56.40;99428.78;5031153;28;20103;-86
2022/05/31 01:42:25;;;;;;;14.73;6.75;;;;;;;22.13;56.58;99440.22;5030560;28;20057;-87
2022/05/31 01:44:56;;;;;;;10.80;6.90;;;;;;;21.99;56.38;99422.06;5030440;28;20124;-87
2022/05/31 01:47:21;;;;;;;12.02;7.88;;;;;;;21.76;56.61;99389.06;5030631;28;20052;-86
2022/05/31 01:49:52;;;;;;;11.80;7.45;;;;;;;21.88;56.68;99413.91;5030694;28;20498;-86
2022/05/31 01:52:18;;;;;;;10.40;6.88;;;;;;;21.66;56.77;99393.53;5031379;28;20053;-86
2022/05/31 01:54:46;;;;;;;10.60;7.57;;;;;;;21.76;56.92;99410.56;5031762;28;20061;-86
2022/05/31 01:57:14;;;;;;;13.35;7.38;;;;;;;21.51;57.03;99378.03;5031673;28;20017;-86
2022/05/31 01:59:44;;;;;;;11.85;7.38;;;;;;;21.94;56.95;99452.38;5030252;28;20029;-86
2022/05/31 02:02:15;;;;;;;9.65;7.30;;;;;;;21.04;57.10;99327.56;5030743;28;20021;-87
2022/05/31 02:04:42;;;;;;;10.43;7.88;;;;;;;21.40;56.99;99390.53;5031856;28;20026;-87
2022/05/31 02:07:16;;;;;;;11.85;7.80;;;;;;;21.92;57.25;99475.22;5032278;28;20041;-86
2022/05/31 02:09:45;;;;;;;10.50;7.45;;;;;;;21.28;57.36;99400.63;5030552;28;20021;-86
2022/05/31 02:12:12;;;;;;;19.50;8.15;;;;;;;21.05;57.45;99349.84;5030468;28;20025;-86
2022/05/31 02:14:38;;;;;;;13.68;7.63;;;;;;;21.88;57.43;99488.34;5031640;28;20090;-86
2022/05/31 02:17:03;;;;;;;13.52;7.63;;;;;;;21.56;57.39;99439.91;5031288;28;20499;-86
2022/05/31 02:19:29;;;;;;;10.48;7.65;;;;;;;21.55;57.66;99440.94;5030085;28;20029;-87
2022/05/31 02:22:01;;;;;;;12.93;8.00;;;;;;;21.71;57.41;99452.69;5029937;28;20486;-86
2022/05/31 02:24:27;;;;;;;9.80;7.05;;;;;;;21.78;57.48;99459.50;5029933;28;20478;-87
2022/05/31 02:26:53;;;;;;;11.65;7.60;;;;;;;21.54;57.35;99421.31;5029880;28;20112;-86
2022/05/31 02:29:22;;;;;;;10.80;7.82;;;;;;;21.50;57.44;99411.34;5029870;28;20044;-87
2022/05/31 02:31:48;;;;;;;10.27;7.68;;;;;;;21.19;57.48;99361.81;5030059;28;20032;-87
2022/05/31 02:34:17;;;;;;;15.70;8.13;;;;;;;21.05;57.65;99328.38;5029765;28;20399;-87
2022/05/31 02:36:43;;;;;;;11.88;7.55;;;;;;;22.00;57.54;99475.56;5030380;28;20108;-87
2022/05/31 02:39:08;;;;;;;9.73;7.38;;;;;;;21.98;57.51;99483.06;5031717;28;20045;-86
2022/05/31 02:41:34;;;;;;;17.27;8.00;;;;;;;21.61;57.59;99429.22;5030068;28;20033;-87
2022/05/31 02:44:00;;;;;;;12.65;7.53;;;;;;;21.72;57.55;99471.25;5031100;28;20493;-86
2022/05/31 02:46:26;;;;;;;11.80;7.85;;;;;;;21.67;57.47;99444.31;5030036;28;20391;-86
2022/05/31 02:48:52;;;;;;;10.48;8.07;;;;;;;21.62;57.63;99468.44;5046570;28;20025;-86
2022/05/31 02:51:17;;;;;;;11.68;7.70;;;;;;;21.90;57.60;99494.28;5033314;28;20028;-86
2022/05/31 02:53:43;;;;;;;11.60;7.40;;;;;;;21.53;57.61;99433.13;5034539;28;20124;-86
2022/05/31 02:56:09;;;;;;;12.20;8.07;;;;;;;21.88;57.74;99488.34;5034819;28;20437;-87
2022/05/31 02:58:35;;;;;;;10.57;7.53;;;;;;;21.30;57.65;99400.38;5033558;28;20108;-86
2022/05/31 03:01:01;;;;;;;11.20;7.40;;;;;;;21.68;57.87;99462.06;5033687;28;20053;-86
2022/05/31 03:03:27;;;;;;;13.80;7.75;;;;;;;21.14;57.88;99394.78;5033971;28;20029;-87
2022/05/31 03:05:53;;;;;;;12.55;8.35;;;;;;;21.97;57.77;99494.09;5033691;28;20032;-87
2022/05/31 03:08:19;;;;;;;11.75;7.80;;;;;;;21.45;57.51;99416.66;5034891;28;20029;-86
2022/05/31 03:10:53;;;;;;;9.98;7.85;;;;;;;22.05;57.53;99507.09;5035041;28;20029;-87
2022/05/31 03:13:22;;;;;;;13.80;8.05;;;;;;;21.72;57.62;99465.06;5034015;28;20041;-86
2022/05/31 03:15:48;;;;;;;14.27;8.32;;;;;;;21.71;57.57;99464.25;5034803;28;20025;-87
2022/05/31 03:18:20;;;;;;;12.85;8.10;;;;;;;21.27;57.46;99390.94;5033558;28;20538;-86
2022/05/31 03:20:53;;;;;;;9.10;8.27;;;;;;;21.94;57.38;99522.28;5034415;28;20025;-86
2022/05/31 03:23:28;;;;;;;11.50;7.88;;;;;;;21.95;57.38;99505.09;5034564;28;20029;-86
2022/05/31 03:25:55;;;;;;;9.77;7.70;;;;;;;21.87;57.37;99505.53;5033192;28;20495;-87
2022/05/31 03:28:22;;;;;;;15.63;8.35;;;;;;;21.45;57.40;99447.00;5034492;28;20120;-87
2022/05/31 03:30:47;;;;;;;12.70;8.63;;;;;;;21.27;57.37;99422.34;5034614;28;20030;-86
2022/05/31 03:33:14;;;;;;;13.60;8.55;;;;;;;21.89;57.55;99524.91;5034255;28;20045;-86
2022/05/31 03:35:40;;;;;;;10.88;8.52;;;;;;;21.82;57.49;99533.19;5034465;28;20033;-86
2022/05/31 03:38:05;;;;;;;11.63;8.40;;;;;;;21.33;57.43;99459.75;5032916;28;20025;-86
2022/05/31 03:43:14;;;;;;;9.25;7.75;;;;;;;21.59;57.37;99505.75;5034448;28;20044;-86
2022/05/31 03:45:43;;;;;;;10.05;7.70;;;;;;;21.59;57.49;99501.19;5032550;28;20025;-86
2022/05/31 03:48:10;;;;;;;10.75;8.13;;;;;;;20.99;57.60;99459.03;5033853;28;20033;-86
2022/05/31 03:50:38;;;;;;;10.85;7.90;;;;;;;21.00;57.56;99414.22;5032455;28;20064;-86
2022/05/31 03:53:14;;;;;;;9.48;7.95;;;;;;;20.99;57.64;99399.97;5033494;28;20538;-86
2022/05/31 03:55:41;;;;;;;9.57;8.10;;;;;;;21.74;57.62;99522.88;5033816;28;20066;-86
2022/05/31 03:58:08;;;;;;;9.90;7.78;;;;;;;21.22;57.32;99439.19;5032479;28;20609;-86
2022/05/31 04:00:34;;;;;;;11.88;8.60;;;;;;;21.03;57.48;99424.44;5032399;28;20426;-86
2022/05/31 04:03:00;;;;;;;10.77;7.68;;;;;;;21.72;57.72;99535.75;5033644;28;20018;-87
2022/05/31 04:05:26;;;;;;;11.75;7.55;;;;;;;21.73;57.76;99539.25;5032703;28;20021;-86
2022/05/31 04:07:53;;;;;;;9.63;7.32;;;;;;;21.77;57.53;99549.25;5032928;28;20027;-87
2022/05/31 04:10:19;;;;;;;10.25;8.32;;;;;;;21.71;57.50;99554.81;5034040;28;20054;-87
2022/05/31 04:12:44;;;;;;;9.13;8.23;;;;;;;21.31;57.49;99472.63;5032686;28;20022;-86
2022/05/31 04:15:10;;;;;;;9.45;7.82;;;;;;;21.10;57.53;99443.88;5032825;28;20048;-87
2022/05/31 04:17:35;;;;;;;10.50;7.85;;;;;;;21.29;57.71;99461.31;5032224;28;20025;-86
2022/05/31 04:20:01;;;;;;;10.82;7.43;;;;;;;21.81;57.70;99571.06;5033495;28;20144;-87
2022/05/31 04:22:26;;;;;;;10.55;7.90;;;;;;;20.98;57.80;99421.69;5032251;28;20116;-86
2022/05/31 04:24:54;;;;;;;12.13;7.78;;;;;;;21.19;58.09;99447.75;5048733;28;20529;-87
2022/05/31 04:27:21;;;;;;;11.45;7.43;;;;;;;21.84;57.92;99547.19;5033559;28;20036;-87
2022/05/31 04:29:47;;;;;;;13.35;7.75;;;;;;;21.84;58.16;99538.31;5036124;28;20097;-86
2022/05/31 04:32:14;;;;;;;12.45;7.75;;;;;;;21.53;58.37;99492.25;5043855;28;20037;-86
2022/05/31 04:34:39;;;;;;;10.25;7.60;;;;;;;21.56;57.97;99477.53;5043293;28;20025;-86
2022/05/31 04:37:06;;;;;;;11.30;6.88;;;;;;;21.01;58.11;99386.31;5044697;28;20021;-86
2022/05/31 04:39:32;;;;;;;12.07;8.18;;;;;;;21.84;57.92;99522.97;5043746;28;20040;-85
2022/05/31 04:41:57;;;;;;;12.23;8.27;;;;;;;22.06;57.77;99543.69;5043608;28;20508;-86
2022/05/31 04:44:23;;;;;;;13.45;6.97;;;;;;;22.04;57.86;99546.63;5043817;28;20049;-86
2022/05/31 04:46:49;;;;;;;10.65;6.97;;;;;;;21.96;57.77;99538.16;5031438;28;20040;-86
2022/05/31 04:49:15;;;;;;;11.82;7.43;;;;;;;21.87;57.84;99529.72;5031438;28;20033;-86
2022/05/31 04:51:41;;;;;;;10.95;7.55;;;;;;;22.34;57.82;99564.16;5032667;28;20029;-87
2022/05/31 04:54:07;;;;;;;8.52;6.95;;;;;;;22.36;57.67;99568.22;5032330;28;20052;-86
2022/05/31 04:56:33;;;;;;;10.75;7.30;;;;;;;22.39;57.67;99572.28;5031383;28;20025;-86
2022/05/31 04:58:59;;;;;;;11.95;7.40;;;;;;;22.42;57.59;99571.78;5031499;28;20064;-86
2022/05/31 05:01:25;;;;;;;11.95;7.25;;;;;;;21.72;57.70;99457.81;5032614;28;20033;-85
2022/05/31 05:03:51;;;;;;;11.00;7.55;;;;;;;22.34;57.71;99548.84;5032515;28;20072;-86
2022/05/31 05:06:18;;;;;;;10.75;7.60;;;;;;;22.50;57.59;99574.00;5032542;28;20421;-87
2022/05/31 05:08:44;;;;;;;12.60;7.75;;;;;;;22.60;57.44;99574.09;5032315;28;20040;-86
2022/05/31 05:11:20;;;;;;;12.10;8.00;;;;;;;22.48;57.64;99558.09;5031113;28;20056;-86
2022/05/31 05:13:45;;;;;;;9.13;7.63;;;;;;;22.54;57.48;99555.47;5030402;28;20025;-87
2022/05/31 05:16:12;;;;;;;8.75;6.93;;;;;;;22.75;57.12;99568.03;5028663;28;20480;-84
2022/05/31 05:18:38;;;;;;;9.75;6.45;;;;;;;22.25;56.84;99488.47;5020297;28;20463;-87
2022/05/31 05:21:08;;;;;;;13.73;6.60;;;;;;;22.52;56.58;99510.78;5012535;28;20034;-86
2022/05/31 05:23:34;;;;;;;7.03;6.32;;;;;;;22.73;55.99;99521.72;5029362;28;20044;-86
2022/05/31 05:26:00;;;;;;;9.55;6.13;;;;;;;22.79;55.80;99521.47;5032247;28;20034;-87
2022/05/31 05:31:33;;;;;;;11.18;7.50;;;;;;;23.13;55.91;99569.69;5013971;28;20037;-86
2022/05/31 05:34:00;;;;;;;9.43;8.00;;;;;;;22.38;55.70;99447.72;5029161;28;20033;-86
2022/05/31 05:36:26;;;;;;;7.20;6.30;;;;;;;23.24;55.42;99571.38;5019454;28;20427;-86
2022/05/31 05:38:52;;;;;;;7.43;5.97;;;;;;;22.54;55.43;99450.53;5012033;28;20431;-86
2022/05/31 05:41:20;;;;;;;9.68;5.95;;;;;;;23.10;55.38;99543.28;5018331;28;20465;-87
2022/05/31 05:43:45;;;;;;;9.82;6.20;;;;;;;23.17;55.40;99556.53;5027091;28;20037;-87
2022/05/31 05:46:29;;;;;;;13.68;6.72;;;;;;;23.07;55.60;99533.03;5010903;28;20029;-86
2022/05/31 05:48:55;;;;;;;8.65;5.95;;;;;;;23.10;55.33;99535.22;5024354;28;20514;-87
2022/05/31 05:51:22;;;;;;;6.18;4.90;;;;;;;23.45;55.45;99575.81;5029689;28;20053;-87
2022/05/31 05:53:47;;;;;;;12.07;8.55;;;;;;;23.27;55.25;99548.50;5019979;28;20089;-86
2022/05/31 05:56:14;;;;;;;9.05;7.50;;;;;;;22.94;55.59;99498.47;5016041;28;20080;-86
2022/05/31 05:58:41;;;;;;;13.48;10.43;;;;;;;22.94;55.58;99479.59;5013473;28;20228;-86
2022/05/31 06:01:09;;;;;;;9.30;8.27;;;;;;;22.94;55.59;99471.53;5030291;28;20025;-86
2022/05/31 06:03:50;;;;;;;7.80;6.50;;;;;;;22.85;55.46;99451.56;5032714;28;20017;-86
2022/05/31 06:06:17;;;;;;;10.30;6.55;;;;;;;22.90;55.51;99484.69;5024860;28;20032;-86
2022/05/31 06:08:50;;;;;;;11.43;7.20;;;;;;;23.26;55.21;99519.94;5031393;28;20160;-86
2022/05/31 06:11:26;;;;;;;7.70;6.40;;;;;;;23.22;55.37;99519.66;5030616;28;20021;-85
2022/05/31 06:14:11;;;;;;;7.95;6.05;;;;;;;23.61;55.26;99584.81;5031522;28;20029;-85
2022/05/31 06:16:42;;;;;;;8.55;7.10;;;;;;;22.93;55.26;99473.41;5031806;28;20498;-84
2022/05/31 06:19:25;;;;;;;9.27;6.35;;;;;;;23.65;55.14;99574.31;5031651;28;20032;-87
2022/05/31 06:21:51;;;;;;;9.43;6.25;;;;;;;23.56;54.92;99559.72;5018424;28;20022;-85
2022/05/31 06:24:19;;;;;;;9.15;6.80;;;;;;;23.46;54.91;99539.72;5027823;28;20028;-84
2022/05/31 06:26:45;;;;;;;8.70;6.50;;;;;;;23.93;55.02;99606.28;5032282;28;20057;-86
2022/05/31 06:29:11;;;;;;;10.27;7.38;;;;;;;23.19;54.75;99463.63;5028284;28;20097;-86
2022/05/31 06:31:37;;;;;;;10.73;8.38;;;;;;;23.56;54.96;99514.72;5051270;28;20025;-86
2022/05/31 06:34:03;;;;;;;9.68;7.88;;;;;;;24.15;54.59;99589.09;5033926;28;20021;-86
2022/05/31 06:36:29;;;;;;;9.63;7.95;;;;;;;23.98;54.40;99540.78;5034170;28;20410;-85
2022/05/31 06:38:55;;;;;;;11.05;7.57;;;;;;;23.97;54.11;99528.38;5023804;28;20022;-86
2022/05/31 06:41:20;;;;;;;7.55;6.82;;;;;;;24.21;53.80;99561.88;5027715;28;20118;-87
2022/05/31 06:43:45;;;;;;;12.07;7.38;;;;;;;23.96;53.74;99514.06;5030470;28;20025;-85
2022/05/31 06:46:11;;;;;;;10.50;6.20;;;;;;;23.95;53.32;99484.66;5018704;28;20032;-87
2022/05/31 06:48:37;;;;;;;13.07;7.80;;;;;;;24.59;53.08;99576.81;5031156;28;20516;-87
2022/05/31 06:51:09;;;;;;;8.57;7.53;;;;;;;24.12;53.09;99492.50;5016682;28;20037;-87
2022/05/31 06:59:03;;;;;;;8.70;6.20;;;;;;;24.62;52.95;99578.16;5033573;28;20116;-85
2022/05/31 07:01:31;;;;;;;9.38;8.38;;;;;;;24.35;52.79;99530.63;5033042;28;20100;-87
2022/05/31 07:04:01;;;;;;;10.13;9.07;;;;;;;24.57;52.62;99546.56;5014351;28;20022;-86
2022/05/31 07:06:27;;;;;;;8.52;6.72;;;;;;;24.77;52.99;99570.06;5015047;28;20025;-86
2022/05/31 07:08:52;;;;;;;10.38;9.27;;;;;;;24.23;52.69;99503.06;5021790;28;20029;-84
2022/05/31 07:11:18;;;;;;;9.75;7.25;;;;;;;24.31;52.57;99507.13;5021359;28;20029;-86
2022/05/31 07:13:43;;;;;;;12.95;7.80;;;;;;;23.98;52.43;99439.09;5023949;28;20063;-85
2022/05/31 07:16:09;;;;;;;9.23;6.88;;;;;;;24.14;52.42;99466.88;5034260;28;20021;-85
2022/05/31 07:18:34;;;;;;;8.02;6.63;;;;;;;24.82;52.45;99551.16;5016199;28;20529;-84
2022/05/31 07:21:01;;;;;;;9.35;8.27;;;;;;;24.59;52.27;99485.03;5014201;28;20029;-84
2022/05/31 07:23:26;;;;;;;9.07;8.00;;;;;;;24.89;52.17;99521.97;5027572;28;20025;-84
2022/05/31 07:25:52;;;;;;;15.18;12.68;;;;;;;25.12;51.84;99542.22;5033743;28;20107;-84
2022/05/31 07:28:18;;;;;;;11.10;9.90;;;;;;;24.90;51.84;99496.59;5033642;28;20036;-87
2022/05/31 07:30:44;;;;;;;11.73;9.23;;;;;;;25.06;51.70;99527.13;5033541;28;20029;-85
2022/05/31 07:33:11;;;;;;;7.97;6.70;;;;;;;25.35;51.77;99551.66;5026375;28;20033;-84
2022/05/31 07:35:39;;;;;;;8.02;6.28;;;;;;;25.23;51.41;99508.69;5019616;28;20030;-84
2022/05/31 07:38:05;;;;;;;11.13;8.23;;;;;;;25.28;51.28;99513.31;5018988;28;20021;-85
2022/05/31 07:40:30;;;;;;;14.27;11.40;;;;;;;25.77;51.12;99572.91;5030810;28;20428;-84
2022/05/31 07:42:56;;;;;;;11.68;10.10;;;;;;;25.22;51.11;99471.94;5031132;28;20513;-84
2022/05/31 07:45:21;;;;;;;10.98;8.10;;;;;;;25.27;50.92;99515.19;5031682;28;20026;-83
2022/05/31 07:47:47;;;;;;;9.55;6.60;;;;;;;24.69;50.56;99422.09;5033162;28;20017;-85
2022/05/31 07:50:13;;;;;;;13.07;10.95;;;;;;;25.81;50.77;99567.75;5024682;28;20107;-85
2022/05/31 07:52:38;;;;;;;8.77;7.15;;;;;;;25.56;50.36;99531.59;5018192;28;20054;-86
2022/05/31 07:55:04;;;;;;;8.02;7.20;;;;;;;25.47;50.52;99478.38;5030601;28;20071;-85
2022/05/31 08:00:14;;;;;;;8.90;6.90;;;;;;;26.04;50.25;99555.50;5016931;28;20036;-84
2022/05/31 08:02:40;;;;;;;9.63;7.20;;;;;;;25.88;50.28;99512.25;5012912;28;20014;-85
2022/05/31 08:05:06;;;;;;;19.95;17.17;;;;;;;26.00;50.31;99530.84;5014196;28;20415;-85
2022/05/31 08:07:31;;;;;;;14.13;10.05;;;;;;;26.13;50.13;99534.88;5018977;28;20040;-85
2022/05/31 08:09:57;;;;;;;10.98;7.25;;;;;;;26.29;49.94;99525.56;5030393;28;20030;-85
2022/05/31 08:12:22;;;;;;;14.23;10.07;;;;;;;26.04;49.90;99466.19;5012467;28;20057;-85
2022/05/31 08:14:48;;;;;;;11.10;7.38;;;;;;;26.14;49.52;99466.13;5012783;28;20029;-85
2022/05/31 08:17:13;;;;;;;10.52;8.10;;;;;;;26.22;49.34;99473.63;5013359;28;20018;-85
2022/05/31 08:19:38;;;;;;;11.32;8.88;;;;;;;26.18;49.13;99442.81;5017195;28;20028;-85
2022/05/31 08:22:04;;;;;;;13.60;9.20;;;;;;;26.90;48.83;99527.81;5031790;28;20501;-85
2022/05/31 08:24:30;;;;;;;10.95;8.65;;;;;;;26.85;48.30;99511.59;5030619;28;20041;-85
2022/05/31 08:26:55;;;;;;;14.98;10.77;;;;;;;26.77;48.19;99472.41;5015522;28;20021;-85
2022/05/31 08:29:23;;;;;;;10.90;7.45;;;;;;;26.57;47.93;99459.81;5012976;28;20026;-85
2022/05/31 08:31:48;;;;;;;8.60;7.40;;;;;;;27.38;47.95;99549.56;5021037;28;20044;-85
2022/05/31 08:34:14;;;;;;;8.65;6.85;;;;;;;27.36;47.42;99530.88;5030071;28;20072;-85
2022/05/31 08:36:39;;;;;;;13.70;9.50;;;;;;;27.51;47.49;99535.34;5028369;28;20061;-84
2022/05/31 08:39:05;;;;;;;13.10;10.20;;;;;;;27.41;47.22;99500.97;5010797;28;20026;-84
2022/05/31 08:41:43;;;;;;;13.43;8.77;;;;;;;27.79;46.88;99531.75;5015890;28;20030;-84
2022/05/31 08:44:35;;;;;;;11.07;7.97;;;;;;;27.93;46.64;99539.16;5014482;28;20033;-85
2022/05/31 08:47:15;;;;;;;15.25;11.00;;;;;;;28.06;46.48;99533.00;5018033;28;20033;-84
2022/05/31 08:53:17;;;;;;;14.73;9.90;;;;;;;28.32;45.48;99544.34;5012463;28;20128;-85
2022/05/31 08:58:55;;;;;;;15.23;10.90;;;;;;;28.12;44.73;99500.06;5019666;28;20545;-85
2022/05/31 09:01:26;;;;;;;14.95;9.48;;;;;;;28.46;44.98;99527.00;5027266;28;20451;-84
2022/05/31 09:03:56;;;;;;;15.80;8.68;;;;;;;28.71;44.65;99555.66;5024774;28;20387;-84
2022/05/31 09:06:27;;;;;;;14.55;8.52;;;;;;;28.33;44.29;99486.22;5021459;28;20057;-84
2022/05/31 09:09:10;;;;;;;16.63;10.45;;;;;;;28.85;44.63;99547.59;5034560;28;20140;-84
2022/05/31 09:11:57;;;;;;;12.82;8.27;;;;;;;28.87;43.96;99525.53;5021846;28;20037;-84
2022/05/31 09:14:26;;;;;;;11.82;7.63;;;;;;;28.89;44.43;99493.44;5024265;28;20072;-86
2022/05/31 09:17:07;;;;;;;14.90;8.50;;;;;;;29.50;43.63;99549.44;5017451;28;20021;-84
2022/05/31 09:19:37;;;;;;;12.75;7.95;;;;;;;29.63;42.86;99562.22;5010642;28;20522;-85
2022/05/31 09:22:06;;;;;;;11.30;7.40;;;;;;;28.79;43.02;99429.97;5016918;28;20026;-84
2022/05/31 09:24:32;;;;;;;14.30;7.70;;;;;;;28.85;42.39;99424.47;5017087;28;20025;-84
2022/05/31 09:26:57;;;;;;;11.10;7.82;;;;;;;30.04;41.70;99540.44;5026410;28;20029;-84
2022/05/31 09:29:41;;;;;;;14.55;9.43;;;;;;;30.30;41.67;99525.09;5011838;28;20028;-84
2022/05/31 09:32:29;;;;;;;9.38;7.25;;;;;;;30.46;40.83;99501.03;5013797;28;20024;-84
2022/05/31 09:35:22;;;;;;;9.93;8.00;;;;;;;30.86;38.87;99531.94;5017492;28;20583;-84
2022/05/31 09:38:30;;;;;;;12.38;7.18;;;;;;;30.90;38.64;99521.22;5032694;28;20029;-84
2022/05/31 09:41:05;;;;;;;10.98;8.77;;;;;;;30.90;39.19;99523.94;5011053;28;20469;-85
2022/05/31 09:43:49;;;;;;;12.95;8.73;;;;;;;30.74;39.01;99520.81;5011513;28;20495;-85
2022/05/31 09:46:42;;;;;;;12.10;8.00;;;;;;;30.62;39.07;99512.41;5045276;28;20030;-84
2022/05/31 09:49:15;;;;;;;10.52;7.90;;;;;;;30.34;38.91;99490.69;5012209;28;20418;-84
2022/05/31 09:51:42;;;;;;;11.52;6.90;;;;;;;30.09;39.36;99444.19;5010616;28;20025;-84
2022/05/31 09:57:06;;;;;;;15.40;11.32;;;;;;;29.89;38.78;99438.09;5031633;28;20095;-84
2022/05/31 09:59:39;;;;;;;13.88;8.20;;;;;;;29.59;38.74;99392.50;5030788;28;20100;-84
2022/05/31 10:02:25;;;;;;;12.93;9.27;;;;;;;30.30;36.70;99511.50;5031343;28;20486;-84
2022/05/31 10:05:08;;;;;;;12.05;9.43;;;;;;;30.22;36.89;99506.78;5036487;28;20087;-85
2022/05/31 10:07:37;;;;;;;11.30;6.25;;;;;;;30.23;37.60;99500.22;5030988;28;20482;-82
2022/05/31 10:10:22;;;;;;;9.23;6.00;;;;;;;30.05;37.19;99473.97;5029509;28;20071;-83
2022/05/31 10:13:00;;;;;;;13.25;10.32;;;;;;;30.11;36.35;99459.13;5034760;28;20024;-83
2022/05/31 10:15:43;;;;;;;14.77;10.05;;;;;;;30.90;36.34;99502.13;5037143;28;20076;-84
2022/05/31 10:18:22;;;;;;;14.95;10.85;;;;;;;31.21;35.10;99502.97;5034372;28;20091;-84
2022/05/31 10:21:01;;;;;;;11.82;7.85;;;;;;;31.08;35.54;99464.84;5045325;28;20040;-82
2022/05/31 10:23:43;;;;;;;12.80;6.63;;;;;;;31.04;34.33;99399.22;5031574;28;20479;-83
2022/05/31 10:26:23;;;;;;;8.95;5.93;;;;;;;31.78;33.16;99510.34;5035990;28;20563;-82
2022/05/31 10:29:12;;;;;;;11.25;6.55;;;;;;;31.71;33.14;99482.72;5051751;28;20029;-83
2022/05/31 10:31:46;;;;;;;7.50;5.90;;;;;;;32.28;32.91;99509.94;5048973;28;20040;-83
2022/05/31 10:34:35;;;;;;;9.40;6.45;;;;;;;32.74;31.51;99507.31;5029444;28;20112;-83
2022/05/31 10:37:03;;;;;;;7.57;4.50;;;;;;;32.39;30.87;99421.84;5036254;28;20115;-83
2022/05/31 10:39:32;;;;;;;9.70;4.90;;;;;;;33.19;30.49;99504.13;5037584;28;20033;-83
2022/05/31 10:42:00;;;;;;;8.93;6.47;;;;;;;32.88;29.50;99424.28;5040836;28;20032;-83
2022/05/31 10:44:35;;;;;;;8.57;6.43;;;;;;;32.21;29.50;99310.97;5040080;28;20033;-83
2022/05/31 10:47:12;;;;;;;10.55;5.05;;;;;;;33.84;28.97;99507.53;5044232;28;20025;-83
2022/05/31 10:49:39;;;;;;;9.98;6.25;;;;;;;33.37;28.86;99400.84;5042317;28;20030;-83
2022/05/31 10:52:25;;;;;;;16.23;13.00;;;;;;;34.34;28.63;99502.81;5047080;28;20043;-83
2022/05/31 10:55:34;;;;;;;15.52;12.70;;;;;;;34.50;27.28;99491.19;5045036;28;20065;-84
2022/05/31 10:58:32;;;;;;;10.20;7.80;;;;;;;34.45;27.25;99489.47;5037310;28;20056;-84
2022/05/31 11:01:14;;;;;;;9.15;5.88;;;;;;;34.10;27.86;99464.28;5041345;28;20494;-84
2022/05/31 11:03:47;;;;;;;9.15;5.68;;;;;;;33.64;28.53;99421.47;5033538;28;20044;-83
2022/05/31 11:06:34;;;;;;;9.40;5.20;;;;;;;33.72;28.75;99481.63;5047368;28;20037;-84
2022/05/31 11:12:41;;;;;;;6.60;4.55;;;;;;;33.00;30.50;99487.31;5057339;28;20052;-82
2022/05/31 11:15:31;;;;;;;8.30;5.57;;;;;;;32.66;31.17;99478.03;5052517;28;20118;-82
2022/05/31 11:18:05;;;;;;;7.50;4.90;;;;;;;32.50;30.93;99469.56;5049819;28;20028;-83
2022/05/31 11:21:03;;;;;;;8.05;6.05;;;;;;;32.19;31.85;99447.09;5041646;28;20033;-83
2022/05/31 11:24:00;;;;;;;10.45;5.07;;;;;;;31.64;32.10;99367.72;5036617;28;20029;-83
2022/05/31 11:26:32;;;;;;;7.68;5.50;;;;;;;32.24;32.38;99466.06;5034262;28;20105;-83
2022/05/31 11:29:19;;;;;;;8.45;6.22;;;;;;;32.17;32.84;99457.53;5033783;28;20032;-84
2022/05/31 11:32:06;;;;;;;11.98;6.22;;;;;;;32.21;33.17;99453.81;5048019;28;20545;-84
2022/05/31 11:35:05;;;;;;;8.98;6.57;;;;;;;32.14;33.75;99417.19;5042105;28;20024;-84
2022/05/31 11:37:56;;;;;;;8.40;6.45;;;;;;;32.16;34.36;99445.81;5046276;28;20025;-83
2022/05/31 11:40:26;;;;;;;10.25;7.07;;;;;;;30.97;34.82;99278.91;5032389;28;20048;-84
2022/05/31 11:43:09;;;;;;;8.15;6.72;;;;;;;32.08;34.68;99430.22;5032685;28;20025;-84
2022/05/31 11:45:56;;;;;;;12.57;8.70;;;;;;;32.18;34.82;99418.97;5037990;28;20112;-85
2022/05/31 11:48:40;;;;;;;11.80;6.50;;;;;;;32.17;35.03;99417.34;5046680;28;20453;-82
2022/05/31 11:51:23;;;;;;;7.65;6.07;;;;;;;32.22;34.75;99419.91;5036628;28;20017;-83
2022/05/31 11:53:48;;;;;;;8.38;6.93;;;;;;;32.17;34.94;99422.81;5051405;28;20118;-84
2022/05/31 11:56:31;;;;;;;12.10;6.95;;;;;;;32.13;35.14;99421.88;5046554;28;20017;-84
2022/05/31 11:59:21;;;;;;;7.82;6.60;;;;;;;31.58;35.52;99351.50;5036397;28;20029;-84
2022/05/31 12:01:49;;;;;;;7.07;5.80;;;;;;;32.02;35.12;99431.50;5047766;28;20024;-84
2022/05/31 12:04:27;;;;;;;9.20;5.60;;;;;;;31.24;35.00;99329.69;5038498;28;20155;-84
2022/05/31 12:07:10;;;;;;;8.85;5.55;;;;;;;31.82;34.80;99438.41;5049694;28;20063;-83
2022/05/31 12:09:56;;;;;;;9.10;5.32;;;;;;;31.72;34.58;99437.91;5043001;28;20422;-84
2022/05/31 12:12:34;;;;;;;8.23;5.38;;;;;;;31.60;34.88;99447.53;5050626;28;20039;-84